sensor_id;sensor_type;location;lat;lon;timestamp;pressure;altitude;pressure_sealevel;temperature
48894;BMP280;34710;35.798;139.446;2022-12-18T00:01:38;99507.45;;;14.71
48894;BMP280;34710;35.798;139.446;2022-12-18T00:04:14;99504.52;;;13.89
48894;BMP280;34710;35.798;139.446;2022-12-18T00:06:44;99509.29;;;14.06
48894;BMP280;34710;35.798;139.446;2022-12-18T00:09:14;99519.79;;;14.48
48894;BMP280;34710;35.798;139.446;2022-12-18T00:11:43;99521.93;;;14.86
48894;BMP280;34710;35.798;139.446;2022-12-18T00:14:14;99516.11;;;14.77
48894;BMP280;34710;35.798;139.446;2022-12-18T00:16:45;99511.92;;;14.10
48894;BMP280;34710;35.798;139.446;2022-12-18T00:19:15;99507.13;;;14.32
48894;BMP280;34710;35.798;139.446;2022-12-18T00:21:45;99505.03;;;14.32
48894;BMP280;34710;35.798;139.446;2022-12-18T00:24:13;99502.44;;;13.88
48894;BMP280;34710;35.798;139.446;2022-12-18T00:26:43;99509.78;;;14.77
48894;BMP280;34710;35.798;139.446;2022-12-18T00:29:14;99518.02;;;15.68
48894;BMP280;34710;35.798;139.446;2022-12-18T00:31:43;99511.12;;;15.28
48894;BMP280;34710;35.798;139.446;2022-12-18T00:34:13;99512.94;;;15.18
48894;BMP280;34710;35.798;139.446;2022-12-18T00:36:43;99510.00;;;16.49
48894;BMP280;34710;35.798;139.446;2022-12-18T00:39:12;99507.45;;;12.79
48894;BMP280;34710;35.798;139.446;2022-12-18T00:41:42;99502.94;;;13.73
48894;BMP280;34710;35.798;139.446;2022-12-18T00:44:13;99507.32;;;15.10
48894;BMP280;34710;35.798;139.446;2022-12-18T00:46:43;99504.61;;;14.90
48894;BMP280;34710;35.798;139.446;2022-12-18T00:49:13;99500.80;;;15.80
48894;BMP280;34710;35.798;139.446;2022-12-18T00:51:42;99492.21;;;15.50
48894;BMP280;34710;35.798;139.446;2022-12-18T00:54:12;99490.43;;;16.62
48894;BMP280;34710;35.798;139.446;2022-12-18T00:56:41;99483.07;;;18.08
48894;BMP280;34710;35.798;139.446;2022-12-18T00:59:11;99488.60;;;18.38
48894;BMP280;34710;35.798;139.446;2022-12-18T01:01:40;99490.71;;;17.84
48894;BMP280;34710;35.798;139.446;2022-12-18T01:04:10;99486.99;;;15.75
48894;BMP280;34710;35.798;139.446;2022-12-18T01:06:40;99485.41;;;15.80
48894;BMP280;34710;35.798;139.446;2022-12-18T01:09:09;99482.48;;;17.33
48894;BMP280;34710;35.798;139.446;2022-12-18T01:11:39;99476.03;;;18.39
48894;BMP280;34710;35.798;139.446;2022-12-18T01:14:08;99476.55;;;19.96
48894;BMP280;34710;35.798;139.446;2022-12-18T01:16:37;99459.70;;;21.53
48894;BMP280;34710;35.798;139.446;2022-12-18T01:19:06;99455.43;;;21.83
48894;BMP280;34710;35.798;139.446;2022-12-18T01:21:35;99445.68;;;21.11
48894;BMP280;34710;35.798;139.446;2022-12-18T01:24:06;99438.21;;;21.72
48894;BMP280;34710;35.798;139.446;2022-12-18T01:26:35;99432.40;;;22.73
48894;BMP280;34710;35.798;139.446;2022-12-18T01:29:05;99418.15;;;23.24
48894;BMP280;34710;35.798;139.446;2022-12-18T01:31:34;99408.77;;;23.53
48894;BMP280;34710;35.798;139.446;2022-12-18T01:34:05;99396.50;;;23.28
48894;BMP280;34710;35.798;139.446;2022-12-18T01:36:36;99394.79;;;23.02
48894;BMP280;34710;35.798;139.446;2022-12-18T01:39:08;99395.64;;;21.58
48894;BMP280;34710;35.798;139.446;2022-12-18T01:41:39;99385.11;;;20.55
48894;BMP280;34710;35.798;139.446;2022-12-18T01:44:57;99386.82;;;20.86
48894;BMP280;34710;35.798;139.446;2022-12-18T01:47:30;99389.88;;;20.89
48894;BMP280;34710;35.798;139.446;2022-12-18T01:50:04;99389.66;;;21.18
48894;BMP280;34710;35.798;139.446;2022-12-18T01:52:34;99390.55;;;21.59
48894;BMP280;34710;35.798;139.446;2022-12-18T01:55:06;99389.71;;;22.49
48894;BMP280;34710;35.798;139.446;2022-12-18T01:57:36;99377.58;;;23.67
48894;BMP280;34710;35.798;139.446;2022-12-18T02:00:09;99374.05;;;22.42
48894;BMP280;34710;35.798;139.446;2022-12-18T02:02:39;99372.42;;;22.82
48894;BMP280;34710;35.798;139.446;2022-12-18T02:05:10;99366.13;;;23.10
48894;BMP280;34710;35.798;139.446;2022-12-18T02:07:49;99357.95;;;24.27
48894;BMP280;34710;35.798;139.446;2022-12-18T02:10:27;99349.02;;;23.58
48894;BMP280;34710;35.798;139.446;2022-12-18T02:13:06;99348.96;;;24.00
48894;BMP280;34710;35.798;139.446;2022-12-18T02:15:44;99342.52;;;23.85
48894;BMP280;34710;35.798;139.446;2022-12-18T02:18:20;99346.43;;;23.57
48894;BMP280;34710;35.798;139.446;2022-12-18T02:20:57;99350.95;;;24.05
48894;BMP280;34710;35.798;139.446;2022-12-18T02:23:41;99353.09;;;23.94
48894;BMP280;34710;35.798;139.446;2022-12-18T02:26:19;99365.35;;;23.52
48894;BMP280;34710;35.798;139.446;2022-12-18T02:28:54;99373.18;;;23.72
48894;BMP280;34710;35.798;139.446;2022-12-18T02:31:28;99356.55;;;24.08
48894;BMP280;34710;35.798;139.446;2022-12-18T02:34:02;99363.02;;;24.70
48894;BMP280;34710;35.798;139.446;2022-12-18T02:36:33;99358.32;;;24.77
48894;BMP280;34710;35.798;139.446;2022-12-18T02:39:07;99348.21;;;24.85
48894;BMP280;34710;35.798;139.446;2022-12-18T02:41:38;99347.25;;;25.36
48894;BMP280;34710;35.798;139.446;2022-12-18T02:44:10;99338.89;;;25.87
48894;BMP280;34710;35.798;139.446;2022-12-18T02:46:43;99330.50;;;26.23
48894;BMP280;34710;35.798;139.446;2022-12-18T02:49:26;99328.50;;;26.80
48894;BMP280;34710;35.798;139.446;2022-12-18T02:52:01;99317.21;;;27.06
48894;BMP280;34710;35.798;139.446;2022-12-18T02:54:45;99315.58;;;27.41
48894;BMP280;34710;35.798;139.446;2022-12-18T02:57:22;99310.98;;;27.84
48894;BMP280;34710;35.798;139.446;2022-12-18T02:59:59;99311.40;;;28.44
48894;BMP280;34710;35.798;139.446;2022-12-18T03:02:41;99305.98;;;28.38
48894;BMP280;34710;35.798;139.446;2022-12-18T03:05:16;99317.07;;;29.03
48894;BMP280;34710;35.798;139.446;2022-12-18T03:07:49;99325.38;;;27.89
48894;BMP280;34710;35.798;139.446;2022-12-18T03:10:25;99318.66;;;27.44
48894;BMP280;34710;35.798;139.446;2022-12-18T03:13:02;99322.18;;;26.44
48894;BMP280;34710;35.798;139.446;2022-12-18T03:15:35;99317.89;;;25.98
48894;BMP280;34710;35.798;139.446;2022-12-18T03:18:10;99327.46;;;26.65
48894;BMP280;34710;35.798;139.446;2022-12-18T03:20:43;99319.12;;;26.04
48894;BMP280;34710;35.798;139.446;2022-12-18T03:23:17;99320.36;;;26.63
48894;BMP280;34710;35.798;139.446;2022-12-18T03:25:47;99315.02;;;27.14
48894;BMP280;34710;35.798;139.446;2022-12-18T03:28:21;99303.62;;;27.04
48894;BMP280;34710;35.798;139.446;2022-12-18T03:30:55;99309.14;;;27.20
48894;BMP280;34710;35.798;139.446;2022-12-18T03:33:28;99316.97;;;27.27
48894;BMP280;34710;35.798;139.446;2022-12-18T03:35:58;99321.26;;;27.58
48894;BMP280;34710;35.798;139.446;2022-12-18T03:38:28;99316.80;;;27.32
48894;BMP280;34710;35.798;139.446;2022-12-18T03:41:02;99315.31;;;27.65
48894;BMP280;34710;35.798;139.446;2022-12-18T03:43:42;99317.74;;;27.81
48894;BMP280;34710;35.798;139.446;2022-12-18T03:46:22;99319.73;;;27.83
48894;BMP280;34710;35.798;139.446;2022-12-18T03:48:59;99326.01;;;27.82
48894;BMP280;34710;35.798;139.446;2022-12-18T03:51:34;99327.09;;;27.87
48894;BMP280;34710;35.798;139.446;2022-12-18T03:54:07;99323.34;;;27.62
48894;BMP280;34710;35.798;139.446;2022-12-18T03:56:42;99326.73;;;27.97
48894;BMP280;34710;35.798;139.446;2022-12-18T03:59:15;99323.05;;;27.62
48894;BMP280;34710;35.798;139.446;2022-12-18T04:01:47;99330.56;;;27.27
48894;BMP280;34710;35.798;139.446;2022-12-18T04:04:19;99325.46;;;28.00
48894;BMP280;34710;35.798;139.446;2022-12-18T04:06:49;99327.93;;;27.51
48894;BMP280;34710;35.798;139.446;2022-12-18T04:09:20;99327.01;;;27.50
48894;BMP280;34710;35.798;139.446;2022-12-18T04:11:49;99330.27;;;27.50
48894;BMP280;34710;35.798;139.446;2022-12-18T04:14:20;99331.84;;;27.77
48894;BMP280;34710;35.798;139.446;2022-12-18T04:16:49;99335.26;;;27.64
48894;BMP280;34710;35.798;139.446;2022-12-18T04:19:18;99337.57;;;27.82
48894;BMP280;34710;35.798;139.446;2022-12-18T04:21:48;99330.65;;;27.08
48894;BMP280;34710;35.798;139.446;2022-12-18T04:24:17;99326.19;;;25.89
48894;BMP280;34710;35.798;139.446;2022-12-18T04:26:47;99338.71;;;25.58
48894;BMP280;34710;35.798;139.446;2022-12-18T04:29:16;99343.98;;;24.90
48894;BMP280;34710;35.798;139.446;2022-12-18T04:31:46;99347.18;;;24.15
48894;BMP280;34710;35.798;139.446;2022-12-18T04:34:15;99353.95;;;23.39
48894;BMP280;34710;35.798;139.446;2022-12-18T04:36:44;99347.49;;;22.76
48894;BMP280;34710;35.798;139.446;2022-12-18T04:39:14;99348.67;;;22.23
48894;BMP280;34710;35.798;139.446;2022-12-18T04:41:43;99358.42;;;22.21
48894;BMP280;34710;35.798;139.446;2022-12-18T04:44:13;99360.82;;;22.43
48894;BMP280;34710;35.798;139.446;2022-12-18T04:46:42;99375.41;;;21.95
48894;BMP280;34710;35.798;139.446;2022-12-18T04:49:12;99365.85;;;21.27
48894;BMP280;34710;35.798;139.446;2022-12-18T04:51:41;99379.64;;;21.27
48894;BMP280;34710;35.798;139.446;2022-12-18T04:54:11;99376.39;;;20.51
48894;BMP280;34710;35.798;139.446;2022-12-18T04:56:40;99373.47;;;20.22
48894;BMP280;34710;35.798;139.446;2022-12-18T04:59:10;99378.83;;;19.24
48894;BMP280;34710;35.798;139.446;2022-12-18T05:01:39;99381.24;;;18.42
48894;BMP280;34710;35.798;139.446;2022-12-18T05:04:09;99391.56;;;17.90
48894;BMP280;34710;35.798;139.446;2022-12-18T05:06:38;99397.53;;;18.03
48894;BMP280;34710;35.798;139.446;2022-12-18T05:09:08;99394.21;;;18.05
48894;BMP280;34710;35.798;139.446;2022-12-18T05:11:37;99402.41;;;18.10
48894;BMP280;34710;35.798;139.446;2022-12-18T05:14:07;99395.15;;;17.52
48894;BMP280;34710;35.798;139.446;2022-12-18T05:16:36;99392.41;;;17.63
48894;BMP280;34710;35.798;139.446;2022-12-18T05:19:06;99399.20;;;17.14
48894;BMP280;34710;35.798;139.446;2022-12-18T05:21:35;99396.93;;;17.37
48894;BMP280;34710;35.798;139.446;2022-12-18T05:24:05;99414.02;;;17.54
48894;BMP280;34710;35.798;139.446;2022-12-18T05:26:35;99417.15;;;17.17
48894;BMP280;34710;35.798;139.446;2022-12-18T05:29:05;99417.19;;;17.41
48894;BMP280;34710;35.798;139.446;2022-12-18T05:31:34;99417.33;;;17.50
48894;BMP280;34710;35.798;139.446;2022-12-18T05:34:03;99424.33;;;17.76
48894;BMP280;34710;35.798;139.446;2022-12-18T05:36:32;99430.60;;;17.39
48894;BMP280;34710;35.798;139.446;2022-12-18T05:39:02;99439.45;;;17.29
48894;BMP280;34710;35.798;139.446;2022-12-18T05:41:31;99437.38;;;17.17
48894;BMP280;34710;35.798;139.446;2022-12-18T05:44:01;99438.79;;;16.38
48894;BMP280;34710;35.798;139.446;2022-12-18T05:46:30;99441.81;;;16.26
48894;BMP280;34710;35.798;139.446;2022-12-18T05:49:01;99440.94;;;16.16
48894;BMP280;34710;35.798;139.446;2022-12-18T05:51:30;99442.13;;;15.97
48894;BMP280;34710;35.798;139.446;2022-12-18T05:54:00;99451.69;;;15.88
48894;BMP280;34710;35.798;139.446;2022-12-18T05:56:29;99458.62;;;16.31
48894;BMP280;34710;35.798;139.446;2022-12-18T05:58:59;99459.01;;;15.44
48894;BMP280;34710;35.798;139.446;2022-12-18T06:01:28;99462.58;;;15.07
48894;BMP280;34710;35.798;139.446;2022-12-18T06:03:58;99473.66;;;15.19
48894;BMP280;34710;35.798;139.446;2022-12-18T06:06:28;99470.47;;;14.90
48894;BMP280;34710;35.798;139.446;2022-12-18T06:08:58;99470.39;;;15.01
48894;BMP280;34710;35.798;139.446;2022-12-18T06:11:27;99476.96;;;14.79
48894;BMP280;34710;35.798;139.446;2022-12-18T06:13:57;99484.32;;;14.37
48894;BMP280;34710;35.798;139.446;2022-12-18T06:16:27;99485.73;;;13.63
48894;BMP280;34710;35.798;139.446;2022-12-18T06:18:57;99492.36;;;13.67
48894;BMP280;34710;35.798;139.446;2022-12-18T06:21:27;99507.85;;;13.38
48894;BMP280;34710;35.798;139.446;2022-12-18T06:23:56;99505.37;;;13.57
48894;BMP280;34710;35.798;139.446;2022-12-18T06:26:26;99514.48;;;13.73
48894;BMP280;34710;35.798;139.446;2022-12-18T06:28:56;99520.46;;;13.54
48894;BMP280;34710;35.798;139.446;2022-12-18T06:31:25;99519.43;;;13.83
48894;BMP280;34710;35.798;139.446;2022-12-18T06:33:55;99525.37;;;14.04
48894;BMP280;34710;35.798;139.446;2022-12-18T06:36:23;99523.57;;;13.15
48894;BMP280;34710;35.798;139.446;2022-12-18T06:38:52;99529.40;;;13.57
48894;BMP280;34710;35.798;139.446;2022-12-18T06:41:22;99535.91;;;13.90
48894;BMP280;34710;35.798;139.446;2022-12-18T06:43:51;99539.59;;;13.42
48894;BMP280;34710;35.798;139.446;2022-12-18T06:46:21;99550.42;;;13.36
48894;BMP280;34710;35.798;139.446;2022-12-18T06:48:51;99547.95;;;13.00
48894;BMP280;34710;35.798;139.446;2022-12-18T06:51:21;99545.65;;;13.51
48894;BMP280;34710;35.798;139.446;2022-12-18T06:53:51;99550.23;;;13.07
48894;BMP280;34710;35.798;139.446;2022-12-18T06:56:21;99557.33;;;13.17
48894;BMP280;34710;35.798;139.446;2022-12-18T06:58:49;99567.83;;;12.83
48894;BMP280;34710;35.798;139.446;2022-12-18T07:01:19;99572.48;;;12.24
48894;BMP280;34710;35.798;139.446;2022-12-18T07:03:52;99576.94;;;11.80
48894;BMP280;34710;35.798;139.446;2022-12-18T07:06:24;99581.71;;;11.27
48894;BMP280;34710;35.798;139.446;2022-12-18T07:08:55;99584.22;;;11.36
48894;BMP280;34710;35.798;139.446;2022-12-18T07:11:24;99590.93;;;11.15
48894;BMP280;34710;35.798;139.446;2022-12-18T07:13:54;99594.41;;;11.50
48894;BMP280;34710;35.798;139.446;2022-12-18T07:16:23;99591.85;;;11.55
48894;BMP280;34710;35.798;139.446;2022-12-18T07:18:53;99595.24;;;11.93
48894;BMP280;34710;35.798;139.446;2022-12-18T07:21:24;99601.95;;;11.87
48894;BMP280;34710;35.798;139.446;2022-12-18T07:23:53;99609.66;;;12.52
48894;BMP280;34710;35.798;139.446;2022-12-18T07:26:23;99613.67;;;12.21
48894;BMP280;34710;35.798;139.446;2022-12-18T07:28:55;99616.77;;;12.34
48894;BMP280;34710;35.798;139.446;2022-12-18T07:31:25;99617.74;;;12.09
48894;BMP280;34710;35.798;139.446;2022-12-18T07:33:54;99624.19;;;12.35
48894;BMP280;34710;35.798;139.446;2022-12-18T07:36:23;99628.34;;;12.25
48894;BMP280;34710;35.798;139.446;2022-12-18T07:38:52;99639.32;;;12.25
48894;BMP280;34710;35.798;139.446;2022-12-18T07:41:22;99650.18;;;12.10
48894;BMP280;34710;35.798;139.446;2022-12-18T07:43:51;99653.89;;;12.17
48894;BMP280;34710;35.798;139.446;2022-12-18T07:46:20;99657.24;;;12.22
48894;BMP280;34710;35.798;139.446;2022-12-18T07:48:50;99663.47;;;12.29
48894;BMP280;34710;35.798;139.446;2022-12-18T07:51:19;99667.55;;;12.04
48894;BMP280;34710;35.798;139.446;2022-12-18T07:53:48;99670.45;;;12.20
48894;BMP280;34710;35.798;139.446;2022-12-18T07:56:18;99676.24;;;12.16
48894;BMP280;34710;35.798;139.446;2022-12-18T07:58:47;99685.01;;;12.01
48894;BMP280;34710;35.798;139.446;2022-12-18T08:01:16;99689.72;;;12.16
48894;BMP280;34710;35.798;139.446;2022-12-18T08:03:46;99693.27;;;11.83
48894;BMP280;34710;35.798;139.446;2022-12-18T08:06:15;99699.56;;;11.80
48894;BMP280;34710;35.798;139.446;2022-12-18T08:08:44;99707.50;;;11.88
48894;BMP280;34710;35.798;139.446;2022-12-18T08:11:13;99714.45;;;11.83
48894;BMP280;34710;35.798;139.446;2022-12-18T08:13:41;99720.65;;;11.61
48894;BMP280;34710;35.798;139.446;2022-12-18T08:16:10;99729.33;;;11.59
48894;BMP280;34710;35.798;139.446;2022-12-18T08:18:39;99733.74;;;11.71
48894;BMP280;34710;35.798;139.446;2022-12-18T08:21:12;99743.17;;;11.45
48894;BMP280;34710;35.798;139.446;2022-12-18T08:23:42;99746.43;;;11.24
48894;BMP280;34710;35.798;139.446;2022-12-18T08:26:12;99754.88;;;11.36
48894;BMP280;34710;35.798;139.446;2022-12-18T08:28:41;99755.63;;;10.65
48894;BMP280;34710;35.798;139.446;2022-12-18T08:31:11;99770.40;;;10.88
48894;BMP280;34710;35.798;139.446;2022-12-18T08:33:40;99773.23;;;10.81
48894;BMP280;34710;35.798;139.446;2022-12-18T08:36:11;99778.21;;;11.18
48894;BMP280;34710;35.798;139.446;2022-12-18T08:38:40;99786.76;;;10.79
48894;BMP280;34710;35.798;139.446;2022-12-18T08:41:11;99790.58;;;10.72
48894;BMP280;34710;35.798;139.446;2022-12-18T08:43:40;99800.69;;;11.06
48894;BMP280;34710;35.798;139.446;2022-12-18T08:46:10;99807.20;;;10.68
48894;BMP280;34710;35.798;139.446;2022-12-18T08:48:39;99809.68;;;10.79
48894;BMP280;34710;35.798;139.446;2022-12-18T08:51:08;99811.78;;;10.72
48894;BMP280;34710;35.798;139.446;2022-12-18T08:53:37;99814.26;;;10.91
48894;BMP280;34710;35.798;139.446;2022-12-18T08:56:07;99822.27;;;10.86
48894;BMP280;34710;35.798;139.446;2022-12-18T08:58:36;99825.75;;;10.97
48894;BMP280;34710;35.798;139.446;2022-12-18T09:01:07;99832.92;;;10.89
48894;BMP280;34710;35.798;139.446;2022-12-18T09:03:37;99838.44;;;10.99
48894;BMP280;34710;35.798;139.446;2022-12-18T09:06:07;99839.46;;;10.47
48894;BMP280;34710;35.798;139.446;2022-12-18T09:08:36;99840.50;;;10.60
48894;BMP280;34710;35.798;139.446;2022-12-18T09:11:05;99841.33;;;10.74
48894;BMP280;34710;35.798;139.446;2022-12-18T09:13:39;99844.77;;;10.61
48894;BMP280;34710;35.798;139.446;2022-12-18T09:16:08;99851.03;;;10.58
48894;BMP280;34710;35.798;139.446;2022-12-18T09:18:37;99862.20;;;11.04
48894;BMP280;34710;35.798;139.446;2022-12-18T09:21:11;99863.88;;;10.58
48894;BMP280;34710;35.798;139.446;2022-12-18T09:23:41;99868.86;;;10.50
48894;BMP280;34710;35.798;139.446;2022-12-18T09:26:10;99868.33;;;10.74
48894;BMP280;34710;35.798;139.446;2022-12-18T09:28:39;99866.89;;;10.48
48894;BMP280;34710;35.798;139.446;2022-12-18T09:31:10;99882.60;;;10.32
48894;BMP280;34710;35.798;139.446;2022-12-18T09:33:39;99888.33;;;10.60
48894;BMP280;34710;35.798;139.446;2022-12-18T09:36:10;99893.92;;;10.32
48894;BMP280;34710;35.798;139.446;2022-12-18T09:38:40;99898.00;;;10.56
48894;BMP280;34710;35.798;139.446;2022-12-18T09:41:24;99897.42;;;10.58
48894;BMP280;34710;35.798;139.446;2022-12-18T09:43:59;99903.28;;;10.51
48894;BMP280;34710;35.798;139.446;2022-12-18T09:46:32;99915.71;;;10.39
48894;BMP280;34710;35.798;139.446;2022-12-18T09:49:07;99920.00;;;10.33
48894;BMP280;34710;35.798;139.446;2022-12-18T09:51:45;99927.23;;;10.32
48894;BMP280;34710;35.798;139.446;2022-12-18T09:54:21;99927.47;;;10.15
48894;BMP280;34710;35.798;139.446;2022-12-18T09:56:52;99935.60;;;10.10
48894;BMP280;34710;35.798;139.446;2022-12-18T09:59:24;99941.80;;;10.14
48894;BMP280;34710;35.798;139.446;2022-12-18T10:01:53;99945.72;;;10.02
48894;BMP280;34710;35.798;139.446;2022-12-18T10:04:22;99948.47;;;10.18
48894;BMP280;34710;35.798;139.446;2022-12-18T10:06:58;99946.96;;;10.18
48894;BMP280;34710;35.798;139.446;2022-12-18T10:09:34;99951.66;;;9.98
48894;BMP280;34710;35.798;139.446;2022-12-18T10:12:16;99958.22;;;10.20
48894;BMP280;34710;35.798;139.446;2022-12-18T10:14:53;99963.64;;;9.93
48894;BMP280;34710;35.798;139.446;2022-12-18T10:17:30;99965.86;;;9.86
48894;BMP280;34710;35.798;139.446;2022-12-18T10:20:12;99971.05;;;9.83
48894;BMP280;34710;35.798;139.446;2022-12-18T10:22:49;99971.31;;;9.58
48894;BMP280;34710;35.798;139.446;2022-12-18T10:25:23;99973.60;;;9.55
48894;BMP280;34710;35.798;139.446;2022-12-18T10:27:57;99980.90;;;9.73
48894;BMP280;34710;35.798;139.446;2022-12-18T10:30:26;99985.30;;;9.44
48894;BMP280;34710;35.798;139.446;2022-12-18T10:33:01;99981.40;;;9.42
48894;BMP280;34710;35.798;139.446;2022-12-18T10:35:31;99988.43;;;9.34
48894;BMP280;34710;35.798;139.446;2022-12-18T10:38:04;99995.43;;;9.37
48894;BMP280;34710;35.798;139.446;2022-12-18T10:40:36;100001.89;;;9.43
48894;BMP280;34710;35.798;139.446;2022-12-18T10:43:20;100004.58;;;9.37
48894;BMP280;34710;35.798;139.446;2022-12-18T10:46:01;100004.65;;;9.32
48894;BMP280;34710;35.798;139.446;2022-12-18T10:48:33;100005.41;;;9.56
48894;BMP280;34710;35.798;139.446;2022-12-18T10:51:04;100005.25;;;9.28
48894;BMP280;34710;35.798;139.446;2022-12-18T10:53:36;100009.27;;;9.28
48894;BMP280;34710;35.798;139.446;2022-12-18T10:56:06;100010.13;;;9.27
48894;BMP280;34710;35.798;139.446;2022-12-18T10:58:37;100010.90;;;9.45
48894;BMP280;34710;35.798;139.446;2022-12-18T11:01:10;100015.84;;;8.95
48894;BMP280;34710;35.798;139.446;2022-12-18T11:03:41;100016.74;;;9.18
48894;BMP280;34710;35.798;139.446;2022-12-18T11:06:13;100018.87;;;9.08
48894;BMP280;34710;35.798;139.446;2022-12-18T11:08:56;100016.77;;;9.31
48894;BMP280;34710;35.798;139.446;2022-12-18T11:11:26;100024.01;;;8.92
48894;BMP280;34710;35.798;139.446;2022-12-18T11:14:01;100026.37;;;8.83
48894;BMP280;34710;35.798;139.446;2022-12-18T11:16:35;100025.71;;;8.69
48894;BMP280;34710;35.798;139.446;2022-12-18T11:19:38;100027.60;;;9.38
48894;BMP280;34710;35.798;139.446;2022-12-18T11:22:21;100027.71;;;8.23
48894;BMP280;34710;35.798;139.446;2022-12-18T11:24:56;100026.43;;;8.40
48894;BMP280;34710;35.798;139.446;2022-12-18T11:27:26;100030.12;;;8.38
48894;BMP280;34710;35.798;139.446;2022-12-18T11:30:10;100025.93;;;8.09
48894;BMP280;34710;35.798;139.446;2022-12-18T11:32:39;100022.21;;;7.85
48894;BMP280;34710;35.798;139.446;2022-12-18T11:35:16;100028.40;;;7.74
48894;BMP280;34710;35.798;139.446;2022-12-18T11:37:50;100027.55;;;7.54
48894;BMP280;34710;35.798;139.446;2022-12-18T11:40:26;100031.47;;;7.49
48894;BMP280;34710;35.798;139.446;2022-12-18T11:43:02;100032.73;;;7.97
48894;BMP280;34710;35.798;139.446;2022-12-18T11:45:38;100032.53;;;8.05
48894;BMP280;34710;35.798;139.446;2022-12-18T11:48:16;100031.22;;;8.08
48894;BMP280;34710;35.798;139.446;2022-12-18T11:50:50;100045.66;;;8.36
48894;BMP280;34710;35.798;139.446;2022-12-18T11:53:20;100045.55;;;8.16
48894;BMP280;34710;35.798;139.446;2022-12-18T11:55:58;100050.59;;;8.02
48894;BMP280;34710;35.798;139.446;2022-12-18T11:58:50;100051.57;;;7.84
48894;BMP280;34710;35.798;139.446;2022-12-18T12:01:35;100049.63;;;7.78
48894;BMP280;34710;35.798;139.446;2022-12-18T12:04:29;100052.74;;;7.47
48894;BMP280;34710;35.798;139.446;2022-12-18T12:07:07;100050.18;;;7.71
48894;BMP280;34710;35.798;139.446;2022-12-18T12:09:47;100058.45;;;7.49
48894;BMP280;34710;35.798;139.446;2022-12-18T12:12:30;100065.17;;;7.92
48894;BMP280;34710;35.798;139.446;2022-12-18T12:15:06;100062.52;;;7.79
48894;BMP280;34710;35.798;139.446;2022-12-18T12:17:47;100072.36;;;7.66
48894;BMP280;34710;35.798;139.446;2022-12-18T12:20:23;100078.58;;;7.50
48894;BMP280;34710;35.798;139.446;2022-12-18T12:23:02;100078.09;;;6.82
48894;BMP280;34710;35.798;139.446;2022-12-18T12:25:39;100088.29;;;6.60
48894;BMP280;34710;35.798;139.446;2022-12-18T12:28:19;100092.89;;;7.13
48894;BMP280;34710;35.798;139.446;2022-12-18T12:31:01;100096.91;;;7.26
48894;BMP280;34710;35.798;139.446;2022-12-18T12:33:39;100096.73;;;7.18
48894;BMP280;34710;35.798;139.446;2022-12-18T12:36:17;100106.44;;;5.99
48894;BMP280;34710;35.798;139.446;2022-12-18T12:38:56;100107.98;;;6.34
48894;BMP280;34710;35.798;139.446;2022-12-18T12:41:30;100108.96;;;6.78
48894;BMP280;34710;35.798;139.446;2022-12-18T12:44:04;100111.96;;;6.51
48894;BMP280;34710;35.798;139.446;2022-12-18T12:46:39;100113.09;;;7.13
48894;BMP280;34710;35.798;139.446;2022-12-18T12:49:13;100111.45;;;6.58
48894;BMP280;34710;35.798;139.446;2022-12-18T12:51:45;100111.76;;;6.53
48894;BMP280;34710;35.798;139.446;2022-12-18T12:54:19;100108.61;;;6.77
48894;BMP280;34710;35.798;139.446;2022-12-18T12:56:54;100115.74;;;7.22
48894;BMP280;34710;35.798;139.446;2022-12-18T12:59:34;100121.49;;;7.84
48894;BMP280;34710;35.798;139.446;2022-12-18T13:02:14;100122.98;;;7.71
48894;BMP280;34710;35.798;139.446;2022-12-18T13:04:51;100130.26;;;7.84
48894;BMP280;34710;35.798;139.446;2022-12-18T13:07:28;100134.37;;;7.46
48894;BMP280;34710;35.798;139.446;2022-12-18T13:10:24;100142.75;;;6.52
48894;BMP280;34710;35.798;139.446;2022-12-18T13:12:56;100144.01;;;6.91
48894;BMP280;34710;35.798;139.446;2022-12-18T13:15:34;100148.35;;;7.07
48894;BMP280;34710;35.798;139.446;2022-12-18T13:18:16;100148.82;;;7.40
48894;BMP280;34710;35.798;139.446;2022-12-18T13:20:47;100151.18;;;8.01
48894;BMP280;34710;35.798;139.446;2022-12-18T13:23:29;100155.15;;;7.89
48894;BMP280;34710;35.798;139.446;2022-12-18T13:26:10;100159.34;;;8.01
48894;BMP280;34710;35.798;139.446;2022-12-18T13:29:00;100166.31;;;7.93
48894;BMP280;34710;35.798;139.446;2022-12-18T13:32:02;100176.15;;;8.74
48894;BMP280;34710;35.798;139.446;2022-12-18T13:34:31;100169.13;;;8.08
48894;BMP280;34710;35.798;139.446;2022-12-18T13:37:42;100164.55;;;7.91
48894;BMP280;34710;35.798;139.446;2022-12-18T13:41:24;100164.21;;;7.31
48894;BMP280;34710;35.798;139.446;2022-12-18T13:43:55;100166.81;;;7.42
48894;BMP280;34710;35.798;139.446;2022-12-18T13:46:29;100172.81;;;7.58
48894;BMP280;34710;35.798;139.446;2022-12-18T13:49:01;100174.35;;;7.74
48894;BMP280;34710;35.798;139.446;2022-12-18T13:51:33;100178.77;;;7.66
48894;BMP280;34710;35.798;139.446;2022-12-18T13:54:19;100175.79;;;7.21
48894;BMP280;34710;35.798;139.446;2022-12-18T13:56:51;100175.58;;;7.08
48894;BMP280;34710;35.798;139.446;2022-12-18T13:59:21;100175.33;;;6.72
48894;BMP280;34710;35.798;139.446;2022-12-18T14:01:54;100182.47;;;6.61
48894;BMP280;34710;35.798;139.446;2022-12-18T14:04:26;100184.50;;;5.82
48894;BMP280;34710;35.798;139.446;2022-12-18T14:07:04;100184.38;;;5.73
48894;BMP280;34710;35.798;139.446;2022-12-18T14:09:36;100180.68;;;5.56
48894;BMP280;34710;35.798;139.446;2022-12-18T14:12:11;100183.62;;;5.55
48894;BMP280;34710;35.798;139.446;2022-12-18T14:14:45;100189.06;;;5.11
48894;BMP280;34710;35.798;139.446;2022-12-18T14:17:16;100187.17;;;4.59